Time;durP1;ratioP1;P1;durP2;ratioP2;P2;SDS_P1;SDS_P2;PMS_P1;PMS_P2;Temp;Humidity;BMP_temperature;BMP_pressure;BME280_temperature;BME280_humidity;BME280_pressure;Samples;Min_cycle;Max_cycle;Signal;HPM_P1;HPM_P2
2021/06/06 00:00:12;;;;;;;16.20;11.70;;;16.20;99.90;;;;;;6262600;28;20511;-77
2021/06/06 00:03:17;;;;;;;17.27;14.00;;;16.20;99.90;;;;;;6260495;28;20089;-77
2021/06/06 00:06:20;;;;;;;14.63;11.07;;;16.10;99.90;;;;;;6257405;28;20520;-77
2021/06/06 00:09:22;;;;;;;19.30;11.57;;;16.10;99.90;;;;;;6257390;28;20048;-78
2021/06/06 00:12:25;;;;;;;17.42;13.48;;;16.10;99.90;;;;;;6260035;28;20049;-78
2021/06/06 00:15:27;;;;;;;22.60;14.65;;;16.00;99.90;;;;;;6254295;28;20041;-77
2021/06/06 00:18:28;;;;;;;20.23;13.85;;;15.90;99.90;;;;;;6252069;28;20151;-77
2021/06/06 00:21:30;;;;;;;23.58;14.70;;;15.90;99.90;;;;;;6249483;28;20136;-77
2021/06/06 00:24:35;;;;;;;19.52;15.23;;;15.80;99.90;;;;;;6263284;28;20087;-78
2021/06/06 00:27:39;;;;;;;22.92;14.27;;;15.80;99.90;;;;;;6264259;28;20114;-77
2021/06/06 00:30:40;;;;;;;25.50;18.08;;;15.80;99.90;;;;;;6265048;28;20136;-78
2021/06/06 00:33:42;;;;;;;29.48;17.35;;;15.70;99.90;;;;;;6263801;28;20058;-77
2021/06/06 00:36:43;;;;;;;32.30;18.50;;;15.70;99.90;;;;;;6256276;28;20423;-77
2021/06/06 00:39:44;;;;;;;38.28;18.52;;;15.60;99.90;;;;;;6255553;28;20110;-77
2021/06/06 00:42:48;;;;;;;33.05;18.80;;;15.60;99.90;;;;;;6256945;28;20072;-77
2021/06/06 00:45:49;;;;;;;32.58;19.00;;;15.60;99.90;;;;;;6251707;28;20117;-77
2021/06/06 00:48:51;;;;;;;35.13;19.63;;;15.60;99.90;;;;;;6248880;28;20077;-77
2021/06/06 00:51:55;;;;;;;42.38;21.65;;;15.60;99.90;;;;;;6251873;28;20128;-77
2021/06/06 00:54:56;;;;;;;37.28;20.77;;;15.60;99.90;;;;;;6254992;28;20508;-77
2021/06/06 00:58:02;;;;;;;41.42;23.13;;;15.60;99.90;;;;;;6261339;28;20030;-76
2021/06/06 01:01:04;;;;;;;37.47;19.67;;;15.60;99.90;;;;;;6280905;28;20038;-75
2021/06/06 01:04:05;;;;;;;44.95;24.17;;;15.60;99.90;;;;;;6281186;28;20054;-76
2021/06/06 01:07:07;;;;;;;37.97;20.95;;;15.50;99.90;;;;;;6281201;28;20056;-76
2021/06/06 01:10:09;;;;;;;40.70;21.73;;;15.50;99.90;;;;;;6280804;28;20037;-76
2021/06/06 01:13:17;;;;;;;40.65;23.75;;;15.50;99.90;;;;;;6280658;28;20041;-75
2021/06/06 01:16:24;;;;;;;41.25;23.15;;;15.50;99.90;;;;;;6280337;28;20045;-76
2021/06/06 01:19:38;;;;;;;40.97;20.33;;;15.40;99.90;;;;;;6279644;28;20057;-76
2021/06/06 01:22:51;;;;;;;39.58;23.80;;;15.40;99.90;;;;;;6260339;28;20062;-77
2021/06/06 01:25:57;;;;;;;44.80;23.20;;;15.40;99.90;;;;;;6257812;28;20666;-77
2021/06/06 01:29:06;;;;;;;50.38;25.05;;;15.40;99.90;;;;;;6254405;28;20067;-77
2021/06/06 01:32:14;;;;;;;38.78;23.58;;;15.40;99.90;;;;;;6251349;28;20049;-77
2021/06/06 01:35:22;;;;;;;46.25;24.27;;;15.40;99.90;;;;;;6253374;28;20088;-77
2021/06/06 01:38:28;;;;;;;51.55;24.77;;;15.40;99.90;;;;;;6252090;28;20061;-77
2021/06/06 01:41:35;;;;;;;36.78;21.73;;;15.40;99.90;;;;;;6251247;28;20464;-77
2021/06/06 01:44:40;;;;;;;49.10;24.52;;;15.40;99.90;;;;;;6248861;28;20064;-77
2021/06/06 01:47:43;;;;;;;41.50;22.88;;;15.30;99.90;;;;;;6241081;28;20049;-77
2021/06/06 01:50:49;;;;;;;43.78;23.38;;;15.30;99.90;;;;;;6249820;28;20140;-77
2021/06/06 01:53:52;;;;;;;51.08;25.90;;;15.30;99.90;;;;;;6258623;28;20128;-77
2021/06/06 01:56:56;;;;;;;50.50;25.65;;;15.30;99.90;;;;;;6250456;28;20049;-77
2021/06/06 02:00:00;;;;;;;57.75;24.67;;;15.30;99.90;;;;;;6251390;28;20046;-77
2021/06/06 02:03:02;;;;;;;59.60;27.83;;;15.30;99.90;;;;;;6247619;28;20561;-76
2021/06/06 02:06:08;;;;;;;50.00;26.55;;;15.30;99.90;;;;;;6247120;28;20069;-77
2021/06/06 02:09:14;;;;;;;66.90;27.92;;;15.30;99.90;;;;;;6249691;28;20511;-78
2021/06/06 02:12:17;;;;;;;51.47;25.27;;;15.20;99.90;;;;;;6246956;28;20076;-76
2021/06/06 02:15:21;;;;;;;61.47;27.55;;;15.20;99.90;;;;;;6246932;28;20140;-76
2021/06/06 02:18:24;;;;;;;58.58;26.65;;;15.20;99.90;;;;;;6244993;28;20045;-76
2021/06/06 02:21:26;;;;;;;57.30;27.35;;;15.20;99.90;;;;;;6245749;28;20132;-76
2021/06/06 02:24:28;;;;;;;64.15;28.70;;;15.20;99.90;;;;;;6246946;28;20502;-77
2021/06/06 02:27:36;;;;;;;78.32;29.67;;;15.10;99.90;;;;;;6247968;28;20116;-77
2021/06/06 02:30:43;;;;;;;74.35;28.50;;;15.10;99.90;;;;;;6249268;28;20046;-77
2021/06/06 02:33:50;;;;;;;79.78;31.15;;;15.00;99.90;;;;;;6247498;28;20065;-77
2021/06/06 02:36:54;;;;;;;76.13;29.53;;;15.10;99.90;;;;;;6246377;28;20045;-77
2021/06/06 02:40:00;;;;;;;76.20;30.70;;;15.00;99.90;;;;;;6246476;28;20049;-77
2021/06/06 02:43:08;;;;;;;72.75;29.27;;;15.00;99.90;;;;;;6247466;28;20081;-77
2021/06/06 02:46:11;;;;;;;80.37;29.17;;;15.00;99.90;;;;;;6250725;28;20625;-77
2021/06/06 02:49:17;;;;;;;88.43;31.13;;;15.00;99.90;;;;;;6249441;28;20316;-77
2021/06/06 02:52:24;;;;;;;72.28;29.95;;;15.00;99.90;;;;;;6250989;28;20050;-77
2021/06/06 02:55:30;;;;;;;70.70;31.83;;;14.90;99.90;;;;;;6247093;28;20049;-77
2021/06/06 02:58:37;;;;;;;83.30;33.33;;;14.90;99.90;;;;;;6247858;28;20144;-77
2021/06/06 03:01:42;;;;;;;79.25;30.42;;;14.90;99.90;;;;;;6247716;28;20045;-76
2021/06/06 03:04:51;;;;;;;77.43;31.98;;;14.90;99.90;;;;;;6247542;28;20149;-77
2021/06/06 03:07:56;;;;;;;86.72;33.30;;;14.90;99.90;;;;;;6248570;28;20072;-76
2021/06/06 03:10:58;;;;;;;83.10;29.55;;;14.90;99.90;;;;;;6249345;28;20110;-76
2021/06/06 03:14:07;;;;;;;73.80;29.27;;;14.90;99.90;;;;;;6252738;28;20049;-77
2021/06/06 03:17:12;;;;;;;93.50;34.65;;;14.90;99.90;;;;;;6250718;28;20045;-77
2021/06/06 03:20:18;;;;;;;77.38;30.27;;;14.90;99.90;;;;;;6251817;28;20144;-77
2021/06/06 03:23:26;;;;;;;79.18;30.13;;;14.90;99.90;;;;;;6255937;28;20526;-77
2021/06/06 03:26:27;;;;;;;80.55;31.95;;;14.80;99.90;;;;;;6251132;28;20052;-77
2021/06/06 03:29:34;;;;;;;81.95;30.75;;;14.90;99.90;;;;;;6250978;28;20105;-78
2021/06/06 03:32:38;;;;;;;72.38;30.15;;;14.80;99.90;;;;;;6247812;28;20136;-77
2021/06/06 03:35:39;;;;;;;70.50;29.10;;;14.90;99.90;;;;;;6248027;28;20052;-77
2021/06/06 03:38:41;;;;;;;75.47;28.33;;;14.90;99.90;;;;;;6248881;28;20069;-77
2021/06/06 03:41:43;;;;;;;76.65;28.13;;;14.90;99.90;;;;;;6254740;28;20519;-77
2021/06/06 03:44:45;;;;;;;73.80;27.23;;;14.90;99.90;;;;;;6246550;28;20191;-77
2021/06/06 03:47:47;;;;;;;61.05;25.42;;;14.90;99.90;;;;;;6255561;28;20080;-77
2021/06/06 03:50:52;;;;;;;64.22;26.10;;;14.90;99.90;;;;;;6257673;28;20125;-78
2021/06/06 03:53:53;;;;;;;54.92;24.75;;;14.90;99.90;;;;;;6264791;28;20056;-76
2021/06/06 03:56:55;;;;;;;57.95;24.75;;;14.90;99.90;;;;;;6252990;28;20054;-76
2021/06/06 03:59:58;;;;;;;62.67;24.15;;;14.90;99.90;;;;;;6250788;28;20057;-77
2021/06/06 04:03:00;;;;;;;62.33;23.17;;;15.00;99.90;;;;;;6250681;28;20538;-76
2021/06/06 04:06:03;;;;;;;55.50;23.80;;;15.00;99.90;;;;;;6249566;28;20042;-76
2021/06/06 04:09:06;;;;;;;41.83;20.85;;;15.00;99.90;;;;;;6253059;28;20076;-76
2021/06/06 04:12:08;;;;;;;54.67;20.88;;;15.00;99.90;;;;;;6249412;28;20613;-76
2021/06/06 04:15:13;;;;;;;47.80;23.30;;;15.00;99.90;;;;;;6249667;28;20049;-75
2021/06/06 04:18:17;;;;;;;52.30;22.23;;;15.00;99.90;;;;;;6248530;28;20132;-75
2021/06/06 04:21:21;;;;;;;40.38;19.80;;;15.00;99.90;;;;;;6248752;28;20176;-76
2021/06/06 04:24:22;;;;;;;46.92;19.13;;;15.00;99.90;;;;;;6249044;28;20072;-75
2021/06/06 04:27:23;;;;;;;50.83;21.25;;;15.00;99.90;;;;;;6249594;28;20479;-76
2021/06/06 04:30:26;;;;;;;48.40;22.75;;;15.00;99.90;;;;;;6249102;28;20463;-76
2021/06/06 04:33:28;;;;;;;48.90;20.50;;;15.10;99.90;;;;;;6249155;28;20119;-76
2021/06/06 04:36:29;;;;;;;43.97;20.30;;;15.10;99.90;;;;;;6249151;28;20136;-76
2021/06/06 04:39:31;;;;;;;39.15;19.90;;;15.10;99.90;;;;;;6248659;28;20072;-76
2021/06/06 04:42:32;;;;;;;41.05;19.75;;;15.10;99.90;;;;;;6249515;28;20057;-76
2021/06/06 04:45:36;;;;;;;40.28;18.40;;;15.10;99.90;;;;;;6248821;28;20132;-76
2021/06/06 04:48:40;;;;;;;49.30;19.98;;;15.10;99.90;;;;;;6246757;28;20128;-75
2021/06/06 04:51:42;;;;;;;46.72;20.05;;;15.10;99.90;;;;;;6224078;28;20123;-76
2021/06/06 04:54:44;;;;;;;48.50;20.65;;;15.20;99.90;;;;;;6224438;28;20046;-76
2021/06/06 04:57:46;;;;;;;48.13;18.60;;;15.10;99.90;;;;;;6223850;28;20049;-76
2021/06/06 05:00:49;;;;;;;47.28;19.45;;;15.10;99.90;;;;;;6223089;28;20076;-77
2021/06/06 05:03:51;;;;;;;38.08;18.23;;;15.10;99.90;;;;;;6223789;28;20526;-76
2021/06/06 05:06:52;;;;;;;40.15;17.98;;;15.10;99.90;;;;;;6224536;28;20057;-76
2021/06/06 05:09:53;;;;;;;39.10;18.95;;;15.10;99.90;;;;;;6223505;28;20135;-76
2021/06/06 05:12:55;;;;;;;43.05;19.45;;;15.10;99.90;;;;;;6223792;28;20072;-76
2021/06/06 05:15:58;;;;;;;41.40;17.88;;;15.10;99.90;;;;;;6223688;28;20050;-76
2021/06/06 05:18:59;;;;;;;39.25;16.67;;;15.10;99.90;;;;;;6224051;28;20068;-77
2021/06/06 05:22:01;;;;;;;37.35;17.70;;;15.10;99.90;;;;;;6223456;28;20136;-76
2021/06/06 05:25:04;;;;;;;38.45;18.55;;;15.10;99.90;;;;;;6223579;28;20049;-76
2021/06/06 05:28:07;;;;;;;38.53;18.92;;;15.20;99.90;;;;;;6223564;28;20133;-76
2021/06/06 05:31:12;;;;;;;36.42;17.90;;;15.20;99.90;;;;;;6223433;28;20058;-77
2021/06/06 05:34:14;;;;;;;39.13;18.08;;;15.20;99.90;;;;;;6223884;28;20603;-76
2021/06/06 05:37:15;;;;;;;37.67;16.63;;;15.20;99.90;;;;;;6223113;28;20065;-76
2021/06/06 05:40:17;;;;;;;32.67;16.35;;;15.20;99.90;;;;;;6222669;28;20045;-76
2021/06/06 05:43:19;;;;;;;40.05;17.33;;;15.20;99.90;;;;;;6222846;28;20160;-76
2021/06/06 05:46:21;;;;;;;29.45;15.75;;;15.30;99.90;;;;;;6223265;28;20132;-76
2021/06/06 05:49:23;;;;;;;26.08;14.50;;;15.30;99.90;;;;;;6235631;28;20080;-76
2021/06/06 05:52:25;;;;;;;31.27;16.05;;;15.30;99.90;;;;;;6247180;28;20464;-76
2021/06/06 05:55:26;;;;;;;37.22;16.55;;;15.30;99.90;;;;;;6247434;28;20076;-76
2021/06/06 05:58:27;;;;;;;34.72;16.70;;;15.30;99.90;;;;;;6248238;28;20128;-76
2021/06/06 06:01:30;;;;;;;31.08;16.23;;;15.30;99.90;;;;;;6246585;28;20135;-76
2021/06/06 06:04:32;;;;;;;34.47;15.65;;;15.30;99.90;;;;;;6240975;28;20485;-76
2021/06/06 06:07:34;;;;;;;34.47;15.23;;;15.40;99.90;;;;;;6246680;28;20046;-76
2021/06/06 06:10:35;;;;;;;39.78;16.25;;;15.40;99.90;;;;;;6247097;28;20056;-76
2021/06/06 06:13:37;;;;;;;25.15;13.43;;;15.40;99.90;;;;;;6254808;28;20151;-76
2021/06/06 06:16:40;;;;;;;25.02;12.75;;;15.40;99.90;;;;;;6271458;28;20051;-76
2021/06/06 06:19:42;;;;;;;30.00;14.90;;;15.30;99.90;;;;;;6271184;28;20484;-76
2021/06/06 06:22:44;;;;;;;29.25;11.95;;;15.40;99.90;;;;;;6258816;28;20073;-76
2021/06/06 06:25:45;;;;;;;35.05;13.18;;;15.40;99.90;;;;;;6245879;28;20418;-76
2021/06/06 06:28:47;;;;;;;25.10;12.68;;;15.40;99.90;;;;;;6246395;28;20140;-75
2021/06/06 06:31:49;;;;;;;23.58;11.80;;;15.40;99.90;;;;;;6246687;28;20129;-76
2021/06/06 06:34:51;;;;;;;23.77;12.25;;;15.40;99.90;;;;;;6246598;28;20138;-76
2021/06/06 06:37:53;;;;;;;24.35;12.20;;;15.40;99.90;;;;;;6246235;28;20419;-76
2021/06/06 06:40:55;;;;;;;17.95;10.50;;;15.50;99.90;;;;;;6245971;28;20077;-76
2021/06/06 06:43:57;;;;;;;25.52;11.07;;;15.50;99.90;;;;;;6246675;28;20056;-76
2021/06/06 06:46:59;;;;;;;24.35;10.65;;;15.50;99.90;;;;;;6246583;28;20073;-75
2021/06/06 06:50:01;;;;;;;19.90;10.13;;;15.50;99.90;;;;;;6244744;28;20144;-76
2021/06/06 06:53:03;;;;;;;21.35;11.65;;;15.50;99.90;;;;;;6245648;28;20096;-76
2021/06/06 06:56:04;;;;;;;19.85;10.30;;;15.50;99.90;;;;;;6246387;28;20080;-76
2021/06/06 06:59:06;;;;;;;18.23;9.25;;;15.60;99.90;;;;;;6246029;28;20499;-76
2021/06/06 07:02:08;;;;;;;17.48;10.07;;;15.60;99.90;;;;;;6246350;28;20136;-76
2021/06/06 07:05:11;;;;;;;17.38;9.90;;;15.60;99.90;;;;;;6246060;28;20182;-76
2021/06/06 07:08:15;;;;;;;14.30;9.02;;;15.70;99.90;;;;;;6245734;28;20045;-76
2021/06/06 07:11:19;;;;;;;16.27;9.40;;;15.70;99.90;;;;;;6245950;28;20077;-76
2021/06/06 07:14:21;;;;;;;12.55;7.78;;;15.70;99.90;;;;;;6262435;28;20566;-76
2021/06/06 07:17:23;;;;;;;15.35;8.25;;;15.70;99.90;;;;;;6270645;28;20473;-76
2021/06/06 07:20:27;;;;;;;12.23;7.10;;;15.80;99.90;;;;;;6270184;28;20070;-76
2021/06/06 07:23:30;;;;;;;15.15;7.50;;;15.80;99.90;;;;;;6270529;28;20124;-76
2021/06/06 07:26:35;;;;;;;9.68;6.50;;;15.80;99.90;;;;;;6275721;28;20134;-76
2021/06/06 07:29:36;;;;;;;10.68;7.28;;;15.80;99.90;;;;;;6275107;28;20049;-76
2021/06/06 07:32:39;;;;;;;11.73;7.57;;;15.90;99.90;;;;;;6275262;28;20103;-76
2021/06/06 07:35:40;;;;;;;12.15;6.72;;;15.90;99.90;;;;;;6275268;28;20131;-76
2021/06/06 07:38:42;;;;;;;12.73;7.53;;;15.90;99.90;;;;;;6275229;28;20087;-76
2021/06/06 07:41:43;;;;;;;8.70;6.97;;;15.90;99.90;;;;;;6274790;28;20128;-76
2021/06/06 07:44:45;;;;;;;14.27;8.07;;;16.00;99.90;;;;;;6275184;28;20514;-76
2021/06/06 07:47:48;;;;;;;11.50;7.68;;;16.00;99.90;;;;;;6274728;28;20045;-76
2021/06/06 07:50:51;;;;;;;6.28;4.78;;;16.00;99.90;;;;;;6259554;28;20053;-76
2021/06/06 07:53:53;;;;;;;6.57;4.82;;;16.00;99.90;;;;;;6231264;28;20077;-76
2021/06/06 07:56:57;;;;;;;7.72;5.55;;;15.90;99.90;;;;;;6225489;28;20141;-76
2021/06/06 07:59:58;;;;;;;10.02;7.60;;;16.00;99.90;;;;;;6224799;28;20096;-77
2021/06/06 08:03:01;;;;;;;7.22;5.07;;;16.00;99.90;;;;;;6225606;28;20442;-76
2021/06/06 08:06:06;;;;;;;7.80;5.38;;;16.00;99.90;;;;;;6225007;28;20053;-77
2021/06/06 08:09:08;;;;;;;6.10;4.97;;;16.00;99.90;;;;;;6224826;28;20104;-76
2021/06/06 08:12:10;;;;;;;11.00;5.70;;;16.00;99.90;;;;;;6225231;28;20156;-76
2021/06/06 08:15:12;;;;;;;8.32;5.30;;;16.00;99.90;;;;;;6226426;28;20060;-76
2021/06/06 08:18:18;;;;;;;8.43;5.40;;;16.10;99.90;;;;;;6231398;28;20132;-76
2021/06/06 08:21:25;;;;;;;7.43;4.45;;;16.10;99.90;;;;;;6224513;28;20128;-76
2021/06/06 08:24:26;;;;;;;6.55;4.70;;;16.20;99.90;;;;;;6224620;28;20507;-76
2021/06/06 08:27:28;;;;;;;9.75;5.50;;;16.20;99.90;;;;;;6224442;28;20084;-76
2021/06/06 08:30:33;;;;;;;8.02;5.35;;;16.20;99.90;;;;;;6225063;28;20141;-76
2021/06/06 08:33:36;;;;;;;5.82;4.68;;;16.30;99.90;;;;;;6224226;28;20050;-76
2021/06/06 08:36:40;;;;;;;7.68;5.20;;;16.30;99.90;;;;;;6224383;28;20546;-76
2021/06/06 08:39:42;;;;;;;8.70;5.47;;;16.40;99.90;;;;;;6223949;28;20141;-76
2021/06/06 08:42:46;;;;;;;6.50;4.88;;;16.50;99.90;;;;;;6225044;28;20494;-76
2021/06/06 08:45:50;;;;;;;8.10;5.00;;;16.60;99.90;;;;;;6224768;28;20133;-76
2021/06/06 08:48:53;;;;;;;6.80;5.28;;;16.60;99.90;;;;;;6224520;28;20130;-76
2021/06/06 08:52:17;;;;;;;5.60;4.97;;;16.60;99.90;;;;;;6228981;28;20053;-76
2021/06/06 08:55:28;;;;;;;6.35;4.45;;;16.50;99.90;;;;;;6248264;28;20129;-76
2021/06/06 08:58:38;;;;;;;6.55;5.53;;;16.50;99.90;;;;;;6249220;28;20570;-76
2021/06/06 09:01:43;;;;;;;6.25;4.82;;;16.50;99.90;;;;;;6248503;28;20445;-76
2021/06/06 09:04:46;;;;;;;9.20;5.53;;;16.50;99.90;;;;;;6249003;28;20093;-77
2021/06/06 09:07:50;;;;;;;9.00;5.30;;;16.60;99.90;;;;;;6248686;28;20563;-76
2021/06/06 09:10:54;;;;;;;6.57;4.97;;;16.50;99.90;;;;;;6248723;28;20085;-76
2021/06/06 09:13:56;;;;;;;11.00;6.47;;;16.50;99.90;;;;;;6248447;28;20128;-76
2021/06/06 09:17:01;;;;;;;6.63;5.47;;;16.60;99.90;;;;;;6248126;28;20045;-76
2021/06/06 09:20:07;;;;;;;5.20;4.13;;;16.60;99.90;;;;;;6247983;28;20459;-76
2021/06/06 09:23:11;;;;;;;5.38;4.50;;;16.70;99.90;;;;;;6248332;28;20554;-76
2021/06/06 09:26:22;;;;;;;5.97;4.20;;;16.70;99.90;;;;;;6248971;28;20140;-76
2021/06/06 09:29:25;;;;;;;6.22;4.68;;;16.70;99.90;;;;;;6247703;28;20059;-76
2021/06/06 09:32:27;;;;;;;5.75;4.45;;;16.70;99.90;;;;;;6248618;28;20056;-76
2021/06/06 09:35:35;;;;;;;6.15;5.07;;;16.70;99.90;;;;;;6247626;28;20518;-77
2021/06/06 09:38:40;;;;;;;9.60;4.82;;;16.80;99.90;;;;;;6248586;28;20088;-76
2021/06/06 09:41:43;;;;;;;8.55;5.63;;;16.70;99.90;;;;;;6247816;28;20609;-76
2021/06/06 09:44:44;;;;;;;6.57;4.63;;;16.80;99.90;;;;;;6247544;28;20481;-76
2021/06/06 09:48:06;;;;;;;10.98;5.53;;;16.70;99.90;;;;;;6247195;28;20099;-76
2021/06/06 09:51:14;;;;;;;11.07;5.30;;;16.70;99.90;;;;;;6247624;28;20136;-76
2021/06/06 09:54:18;;;;;;;10.70;6.47;;;16.70;99.90;;;;;;6244095;28;20052;-76
2021/06/06 09:57:26;;;;;;;6.95;5.35;;;16.70;99.90;;;;;;6247252;28;20128;-76
2021/06/06 10:00:37;;;;;;;7.88;5.97;;;16.70;99.90;;;;;;6247126;28;20065;-76
2021/06/06 10:03:42;;;;;;;8.43;6.45;;;16.70;99.90;;;;;;6247393;28;20069;-76
2021/06/06 10:06:46;;;;;;;7.90;5.57;;;16.70;99.90;;;;;;6248164;28;20139;-76
2021/06/06 10:09:51;;;;;;;10.43;7.38;;;16.70;99.90;;;;;;6247405;28;20073;-76
2021/06/06 10:12:56;;;;;;;11.60;7.80;;;16.80;99.90;;;;;;6247649;28;20045;-77
2021/06/06 10:16:01;;;;;;;13.23;10.52;;;16.80;99.90;;;;;;6247261;28;20118;-76
2021/06/06 10:19:08;;;;;;;19.25;12.52;;;16.90;99.90;;;;;;6246989;28;20574;-76
2021/06/06 10:22:16;;;;;;;19.63;13.03;;;17.00;99.90;;;;;;6247441;28;20051;-76
2021/06/06 10:25:24;;;;;;;19.80;12.57;;;17.10;99.90;;;;;;6246486;28;20096;-77
2021/06/06 10:28:32;;;;;;;17.38;11.38;;;17.20;99.90;;;;;;6247071;28;20055;-77
2021/06/06 10:31:35;;;;;;;;;;;17.30;99.90;;;;;;6248129;28;20057;-77
2021/06/06 10:34:43;;;;;;;36.30;18.65;;;17.30;99.90;;;;;;6247531;28;20019;-77
2021/06/06 10:37:50;;;;;;;31.98;19.63;;;17.30;99.90;;;;;;6246695;28;20195;-77
2021/06/06 10:40:54;;;;;;;38.80;24.73;;;17.30;99.90;;;;;;6246706;28;20629;-77
2021/06/06 10:43:59;;;;;;;45.10;25.65;;;17.30;99.90;;;;;;6248667;28;20464;-77
2021/06/06 10:47:05;;;;;;;45.33;26.10;;;17.30;99.90;;;;;;6249247;28;20415;-77
2021/06/06 10:50:16;;;;;;;40.90;26.50;;;17.30;99.90;;;;;;6247148;28;20064;-77
2021/06/06 10:53:21;;;;;;;44.67;26.55;;;17.30;99.90;;;;;;6243811;28;20068;-78
2021/06/06 10:56:54;;;;;;;45.33;27.65;;;17.30;99.90;;;;;;6229494;28;20169;-76
2021/06/06 11:00:12;;;;;;;55.00;29.00;;;17.40;99.90;;;;;;6223829;28;20563;-77
2021/06/06 11:03:22;;;;;;;45.55;27.60;;;17.40;99.90;;;;;;6229015;28;20140;-78
2021/06/06 11:06:27;;;;;;;49.08;26.98;;;17.40;99.90;;;;;;6228624;28;20060;-78
2021/06/06 11:09:32;;;;;;;54.10;30.40;;;17.50;99.90;;;;;;6226640;28;20080;-78
2021/06/06 11:12:36;;;;;;;42.70;26.25;;;17.60;99.90;;;;;;6230567;28;20129;-77
2021/06/06 11:15:41;;;;;;;43.63;29.27;;;17.60;99.90;;;;;;6276130;28;20075;-77
2021/06/06 11:18:44;;;;;;;43.83;27.67;;;17.80;99.90;;;;;;6276510;28;20131;-77
2021/06/06 11:21:49;;;;;;;37.15;26.52;;;17.90;99.90;;;;;;6275745;28;20195;-77
2021/06/06 11:24:53;;;;;;;48.03;28.65;;;18.20;99.90;;;;;;6276468;28;20056;-78
2021/06/06 11:27:59;;;;;;;43.15;27.60;;;18.50;99.90;;;;;;6275576;28;20053;-77
2021/06/06 11:31:02;;;;;;;35.13;25.88;;;18.70;99.90;;;;;;6276228;28;20088;-77
2021/06/06 11:34:09;;;;;;;35.20;23.98;;;18.90;99.90;;;;;;6275893;28;20556;-77
2021/06/06 11:37:15;;;;;;;35.03;24.13;;;19.10;99.90;;;;;;6275549;28;20075;-78
2021/06/06 11:40:36;;;;;;;31.92;23.67;;;19.30;99.90;;;;;;6275560;28;20131;-77
2021/06/06 11:43:43;;;;;;;34.42;21.50;;;19.40;99.90;;;;;;6275874;28;20072;-78
2021/06/06 11:46:51;;;;;;;23.57;20.87;;;19.50;99.90;;;;;;6276401;28;20076;-77
2021/06/06 11:49:56;;;;;;;;;;;19.40;99.90;;;;;;6275391;28;20127;-77
2021/06/06 11:53:04;;;;;;;27.85;20.33;;;19.20;99.90;;;;;;6275158;28;20274;-78
2021/06/06 11:56:13;;;;;;;34.45;25.48;;;19.20;99.90;;;;;;6245687;28;20483;-77
2021/06/06 11:59:21;;;;;;;29.13;21.45;;;19.20;99.90;;;;;;6250237;28;20487;-77
2021/06/06 12:02:26;;;;;;;32.58;23.13;;;19.20;99.90;;;;;;6250959;28;20463;-77
2021/06/06 12:05:30;;;;;;;32.63;23.08;;;19.00;99.90;;;;;;6249080;28;20073;-78
2021/06/06 12:08:34;;;;;;;32.38;22.77;;;19.00;99.90;;;;;;6249764;28;20076;-77
2021/06/06 12:11:37;;;;;;;24.55;19.52;;;19.10;99.90;;;;;;6249885;28;20070;-78
2021/06/06 12:14:40;;;;;;;30.52;20.50;;;19.20;99.90;;;;;;6269196;28;20056;-77
2021/06/06 12:17:41;;;;;;;30.90;22.35;;;19.30;99.90;;;;;;6274781;28;20045;-77
2021/06/06 12:20:51;;;;;;;29.67;22.80;;;19.50;99.90;;;;;;6274433;28;20071;-77
2021/06/06 12:24:07;;;;;;;32.08;22.92;;;19.50;99.90;;;;;;6275104;28;20037;-77
2021/06/06 12:27:17;;;;;;;36.40;23.73;;;19.40;99.90;;;;;;6274434;28;20708;-77
2021/06/06 12:30:24;;;;;;;30.27;24.58;;;19.50;99.90;;;;;;6274163;28;20045;-77
2021/06/06 12:33:32;;;;;;;31.77;25.23;;;19.60;99.90;;;;;;6274475;28;20045;-77
2021/06/06 12:36:36;;;;;;;34.92;25.55;;;19.80;99.90;;;;;;6274538;28;20426;-77
2021/06/06 12:39:41;;;;;;;28.15;21.45;;;20.10;99.90;;;;;;6273985;28;20041;-77
2021/06/06 12:42:45;;;;;;;27.83;22.05;;;20.30;99.90;;;;;;6275366;28;20132;-77
2021/06/06 12:45:48;;;;;;;28.05;20.80;;;20.30;99.90;;;;;;6274105;28;20069;-77
2021/06/06 12:49:00;;;;;;;28.35;22.08;;;20.20;99.90;;;;;;6274188;28;20045;-77
2021/06/06 12:52:14;;;;;;;30.58;24.25;;;20.40;99.90;;;;;;6273948;28;20049;-77
2021/06/06 12:55:22;;;;;;;32.60;23.15;;;20.60;99.90;;;;;;6268541;28;20055;-77
2021/06/06 12:58:30;;;;;;;30.95;21.70;;;20.70;99.90;;;;;;6251364;28;20081;-77
2021/06/06 13:01:31;;;;;;;24.73;19.45;;;21.00;99.90;;;;;;6252304;28;20049;-77
2021/06/06 13:04:33;;;;;;;22.27;19.10;;;21.20;99.90;;;;;;6252059;28;20119;-77
2021/06/06 13:07:38;;;;;;;22.38;18.75;;;21.60;99.90;;;;;;6251151;28;20061;-77
2021/06/06 13:10:51;;;;;;;24.77;20.27;;;21.80;99.90;;;;;;6254001;28;20088;-76
2021/06/06 13:13:56;;;;;;;28.23;19.88;;;21.90;99.90;;;;;;6272082;28;20094;-76
2021/06/06 13:17:05;;;;;;;21.92;19.23;;;21.90;99.90;;;;;;6273264;28;20041;-77
2021/06/06 13:20:24;;;;;;;25.23;19.45;;;21.80;99.00;;;;;;6272880;28;20065;-77
2021/06/06 13:23:29;;;;;;;23.73;19.30;;;21.60;99.80;;;;;;6272335;28;20139;-76
2021/06/06 13:26:37;;;;;;;23.30;19.05;;;21.40;99.90;;;;;;6273021;28;20048;-77
2021/06/06 13:29:43;;;;;;;24.20;19.67;;;21.40;99.90;;;;;;6272104;28;20122;-78
2021/06/06 13:32:54;;;;;;;27.48;20.23;;;21.20;99.90;;;;;;6272362;28;20113;-77
2021/06/06 13:35:56;;;;;;;32.63;24.25;;;21.00;99.90;;;;;;6272577;28;20532;-77
2021/06/06 13:38:59;;;;;;;24.45;19.90;;;20.80;99.90;;;;;;6272619;28;20098;-76
2021/06/06 13:42:02;;;;;;;25.17;19.67;;;20.60;99.90;;;;;;6271962;28;20041;-77
2021/06/06 13:45:07;;;;;;;28.30;21.02;;;20.40;99.90;;;;;;6272492;28;20104;-77
2021/06/06 13:48:12;;;;;;;25.67;21.10;;;20.30;99.90;;;;;;6272019;28;20068;-76
2021/06/06 13:51:13;;;;;;;27.02;22.67;;;20.10;99.90;;;;;;6272418;28;20053;-76
2021/06/06 13:54:15;;;;;;;30.50;22.13;;;20.00;99.90;;;;;;6272342;28;20131;-76
2021/06/06 13:57:16;;;;;;;27.55;20.95;;;20.00;99.90;;;;;;6255817;28;20037;-76
2021/06/06 14:00:20;;;;;;;28.48;22.38;;;20.00;99.90;;;;;;6246125;28;20131;-76
2021/06/06 14:03:25;;;;;;;26.10;21.80;;;20.00;99.90;;;;;;6247288;28;20050;-76
2021/06/06 14:06:26;;;;;;;29.38;22.60;;;20.00;99.90;;;;;;6247321;28;20461;-76
2021/06/06 14:09:27;;;;;;;28.55;23.42;;;19.90;99.90;;;;;;6246649;28;20154;-76
2021/06/06 14:12:29;;;;;;;30.88;23.13;;;19.80;99.90;;;;;;6247252;28;20049;-76
2021/06/06 14:15:32;;;;;;;31.63;23.10;;;19.80;99.90;;;;;;6253952;28;20048;-76
2021/06/06 14:18:34;;;;;;;27.00;22.17;;;19.80;99.90;;;;;;6271892;28;20041;-77
2021/06/06 14:21:36;;;;;;;27.30;23.40;;;19.90;99.90;;;;;;6271615;28;20503;-76
2021/06/06 14:24:38;;;;;;;29.65;22.00;;;19.90;99.90;;;;;;6271551;28;20200;-76
2021/06/06 14:27:39;;;;;;;28.23;22.95;;;20.00;99.90;;;;;;6271101;28;20633;-76
2021/06/06 14:30:43;;;;;;;31.77;25.05;;;19.90;99.90;;;;;;6271995;28;20132;-78
2021/06/06 14:33:45;;;;;;;30.80;22.17;;;19.90;99.90;;;;;;6271741;28;20128;-77
2021/06/06 14:36:49;;;;;;;29.15;22.02;;;19.90;99.90;;;;;;6248721;28;20045;-78
2021/06/06 14:39:50;;;;;;;29.60;23.30;;;19.90;99.90;;;;;;6245795;28;20053;-77
2021/06/06 14:42:52;;;;;;;29.70;24.00;;;19.90;99.90;;;;;;6247875;28;20480;-77
2021/06/06 14:45:56;;;;;;;32.85;24.88;;;19.70;99.90;;;;;;6245996;28;20049;-77
2021/06/06 14:48:58;;;;;;;32.40;25.08;;;19.50;99.90;;;;;;6246855;28;20096;-78
2021/06/06 14:52:00;;;;;;;34.35;24.00;;;19.40;99.90;;;;;;6246153;28;20136;-77
2021/06/06 14:55:01;;;;;;;31.95;24.10;;;19.40;99.90;;;;;;6247230;28;20061;-76
2021/06/06 14:58:04;;;;;;;30.63;21.35;;;19.40;99.90;;;;;;6245110;28;20114;-77
2021/06/06 15:01:09;;;;;;;31.85;23.58;;;19.30;99.90;;;;;;6242731;28;20148;-77
2021/06/06 15:04:11;;;;;;;30.38;24.10;;;19.30;99.90;;;;;;6247452;28;20053;-75
2021/06/06 15:07:13;;;;;;;28.52;23.77;;;19.30;99.90;;;;;;6245940;28;20152;-75
2021/06/06 15:10:16;;;;;;;32.60;25.95;;;19.30;99.90;;;;;;6246051;28;20080;-75
2021/06/06 15:13:21;;;;;;;32.97;23.52;;;19.30;99.90;;;;;;6253147;28;20648;-76
2021/06/06 15:16:26;;;;;;;26.98;22.90;;;19.30;99.90;;;;;;6270967;28;20129;-77
2021/06/06 15:19:29;;;;;;;30.15;22.77;;;19.40;99.90;;;;;;6270266;28;20072;-77
2021/06/06 15:22:30;;;;;;;31.13;23.02;;;19.40;99.90;;;;;;6271055;28;20567;-77
2021/06/06 15:25:35;;;;;;;31.63;25.17;;;19.50;99.90;;;;;;6270276;28;20073;-77
2021/06/06 15:28:38;;;;;;;36.13;25.85;;;19.60;99.90;;;;;;6270599;28;20041;-76
2021/06/06 15:31:41;;;;;;;31.20;22.40;;;19.60;99.90;;;;;;6269913;28;20533;-77
2021/06/06 15:34:44;;;;;;;32.45;24.88;;;19.60;99.90;;;;;;6270962;28;20561;-77
2021/06/06 15:37:46;;;;;;;31.23;23.52;;;19.70;99.90;;;;;;6270649;28;20128;-77